Time;durP1;ratioP1;P1;durP2;ratioP2;P2;SDS_P1;SDS_P2;PMS_P1;PMS_P2;Temp;Humidity;BMP_temperature;BMP_pressure;BME280_temperature;BME280_humidity;BME280_pressure;Samples;Min_cycle;Max_cycle;Signal;HPM_P1;HPM_P2
2024/03/14 00:00:22;;;;;;;45.40;23.70;;;;;;;6.47;87.49;100340.91;130402;1265;108954;-77
2024/03/14 00:03:45;;;;;;;46.50;24.90;;;;;;;6.54;87.16;100339.61;130428;1268;110596;-77
2024/03/14 00:06:48;;;;;;;46.20;24.80;;;;;;;6.59;87.57;100341.98;130329;1263;98735;-77
2024/03/14 00:09:51;;;;;;;44.30;24.70;;;;;;;6.63;87.70;100339.52;130178;1263;99124;-78
2024/03/14 00:12:55;;;;;;;43.60;24.60;;;;;;;6.65;87.22;100338.35;130238;1264;108522;-77
2024/03/14 00:15:58;;;;;;;42.00;21.40;;;;;;;6.64;87.55;100334.56;130232;1263;98032;-77
2024/03/14 00:19:01;;;;;;;42.10;20.70;;;;;;;6.64;87.71;100333.48;130158;1257;106819;-78
2024/03/14 00:22:06;;;;;;;43.40;24.10;;;;;;;6.64;88.01;100329.91;130200;1273;99236;-78
2024/03/14 00:25:10;;;;;;;44.40;23.50;;;;;;;6.68;88.21;100325.17;130412;1267;107796;-78
2024/03/14 00:28:13;;;;;;;45.30;24.00;;;;;;;6.74;88.12;100332.14;130373;1263;108399;-77
2024/03/14 00:31:16;;;;;;;42.40;22.90;;;;;;;6.80;87.73;100332.90;130351;1263;107129;-77
2024/03/14 00:34:20;;;;;;;46.00;23.40;;;;;;;6.83;88.11;100327.48;130188;1264;108683;-77
2024/03/14 00:37:23;;;;;;;43.90;23.60;;;;;;;6.83;88.00;100320.59;130163;1263;106656;-78
2024/03/14 00:40:28;;;;;;;38.50;19.80;;;;;;;6.82;87.95;100317.00;130227;1265;98031;-78
2024/03/14 00:43:32;;;;;;;43.80;21.80;;;;;;;6.81;88.42;100320.45;130279;1265;106678;-77
2024/03/14 00:46:36;;;;;;;38.70;21.70;;;;;;;6.81;88.21;100316.48;130390;1266;107500;-78
2024/03/14 00:49:39;;;;;;;40.90;22.10;;;;;;;6.84;88.38;100317.32;130401;1258;107680;-77
2024/03/14 00:52:42;;;;;;;39.90;21.30;;;;;;;6.87;88.16;100317.06;130193;1270;98015;-78
2024/03/14 00:55:45;;;;;;;38.50;21.70;;;;;;;6.89;88.31;100315.84;130309;1268;99106;-78
2024/03/14 00:58:48;;;;;;;39.40;21.60;;;;;;;6.91;88.14;100316.05;130408;1257;97957;-80
2024/03/14 01:01:51;;;;;;;39.00;20.50;;;;;;;6.91;88.09;100312.73;130613;1264;98015;-79
2024/03/14 01:04:54;;;;;;;32.50;17.40;;;;;;;6.86;88.16;100317.17;130382;1257;108673;-79
2024/03/14 01:07:57;;;;;;;35.30;17.80;;;;;;;6.80;88.37;100325.83;130357;1263;106765;-79
2024/03/14 01:11:00;;;;;;;34.70;19.20;;;;;;;6.78;88.33;100321.73;130178;1257;108457;-79
2024/03/14 01:14:06;;;;;;;36.60;20.40;;;;;;;6.79;88.55;100318.27;130268;1264;98446;-79
2024/03/14 01:17:09;;;;;;;39.00;22.60;;;;;;;6.82;88.53;100318.05;130432;1265;107923;-79
2024/03/14 01:20:16;;;;;;;38.00;20.70;;;;;;;6.86;88.35;100316.48;130238;1265;108686;-79
2024/03/14 01:23:19;;;;;;;34.80;20.20;;;;;;;6.84;88.27;100318.75;130645;1257;107517;-79
2024/03/14 01:26:22;;;;;;;36.70;20.50;;;;;;;6.82;88.55;100316.58;130361;1257;107677;-79
2024/03/14 01:29:25;;;;;;;37.30;19.60;;;;;;;6.82;88.47;100315.74;130234;1260;107414;-79
2024/03/14 01:32:28;;;;;;;36.60;18.80;;;;;;;6.82;88.56;100310.75;130210;1273;106923;-79
2024/03/14 01:35:31;;;;;;;33.20;19.60;;;;;;;6.84;88.67;100310.57;130206;1263;99143;-79
2024/03/14 01:38:35;;;;;;;35.10;19.80;;;;;;;6.85;88.47;100309.82;130362;1264;98001;-79
2024/03/14 01:41:38;;;;;;;37.10;20.50;;;;;;;6.85;88.33;100303.96;130388;1263;107812;-78
2024/03/14 01:44:50;;;;;;;35.30;19.60;;;;;;;6.87;88.62;100306.59;130386;1270;98012;-78
2024/03/14 01:47:53;;;;;;;35.70;20.10;;;;;;;6.89;88.55;100307.73;130278;1263;107792;-78
2024/03/14 01:50:56;;;;;;;35.90;20.60;;;;;;;6.88;88.32;100302.34;130301;1258;98729;-78
2024/03/14 01:53:59;;;;;;;33.70;17.50;;;;;;;6.86;88.36;100306.22;130202;1258;98037;-78
2024/03/14 01:57:02;;;;;;;31.90;17.30;;;;;;;6.82;88.52;100307.64;130286;1260;99186;-78
2024/03/14 02:00:06;;;;;;;35.40;20.10;;;;;;;6.82;88.61;100304.08;130210;1273;97951;-78
2024/03/14 02:03:16;;;;;;;42.30;19.50;;;;;;;6.85;88.75;100299.38;130199;1257;105304;-78
2024/03/14 02:06:20;;;;;;;39.40;21.10;;;;;;;6.87;88.52;100300.48;130356;1264;106694;-78
2024/03/14 02:09:23;;;;;;;37.40;20.40;;;;;;;6.89;88.57;100296.91;130257;1264;107685;-78
2024/03/14 02:12:26;;;;;;;36.60;20.30;;;;;;;6.91;88.44;100298.56;130181;1263;108504;-78
2024/03/14 02:15:31;;;;;;;34.80;19.60;;;;;;;6.89;88.42;100298.73;130225;1264;108455;-78
2024/03/14 02:18:34;;;;;;;34.50;18.10;;;;;;;6.88;88.55;100297.70;130280;1272;108454;-78
2024/03/14 02:21:39;;;;;;;31.30;16.30;;;;;;;6.87;88.60;100296.54;130344;1260;108041;-78
2024/03/14 02:24:42;;;;;;;36.60;19.30;;;;;;;6.85;88.48;100291.98;130250;1257;106752;-78
2024/03/14 02:27:45;;;;;;;38.20;19.80;;;;;;;6.84;88.75;100290.96;130383;1257;108004;-78
2024/03/14 02:30:48;;;;;;;38.70;20.10;;;;;;;6.87;88.58;100290.73;130219;1261;98060;-78
2024/03/14 02:33:51;;;;;;;36.60;20.20;;;;;;;6.89;88.94;100289.19;130191;1257;98086;-78
2024/03/14 02:36:54;;;;;;;40.20;21.10;;;;;;;6.87;88.50;100287.20;130174;1260;108440;-78
2024/03/14 02:39:58;;;;;;;35.70;20.40;;;;;;;6.83;88.45;100285.44;130240;1261;99095;-78
2024/03/14 02:43:00;;;;;;;36.00;18.10;;;;;;;6.80;88.76;100288.98;130283;1270;108691;-78
2024/03/14 02:46:04;;;;;;;38.20;18.20;;;;;;;6.78;88.53;100292.52;130376;1264;99129;-78
2024/03/14 02:49:07;;;;;;;41.20;20.80;;;;;;;6.80;88.64;100293.61;130434;1264;108630;-78
2024/03/14 02:52:10;;;;;;;38.70;19.60;;;;;;;6.82;88.72;100291.67;130348;1258;107630;-79
2024/03/14 02:55:13;;;;;;;36.60;19.20;;;;;;;6.83;88.80;100292.69;130208;1258;107622;-78
2024/03/14 02:58:16;;;;;;;39.00;21.20;;;;;;;6.82;88.86;100291.66;130155;1260;106645;-79
2024/03/14 03:01:22;;;;;;;39.80;20.30;;;;;;;6.82;88.95;100295.79;130189;1258;99206;-78
2024/03/14 03:04:30;;;;;;;36.10;18.60;;;;;;;6.80;88.58;100292.95;130228;1263;107348;-78
2024/03/14 03:07:33;;;;;;;34.00;17.90;;;;;;;6.76;88.94;100293.77;130226;1261;107963;-79
2024/03/14 03:10:36;;;;;;;30.20;16.00;;;;;;;6.74;88.96;100294.49;130199;1257;108456;-78
2024/03/14 03:13:40;;;;;;;38.40;18.70;;;;;;;6.74;89.11;100293.63;130258;1264;98111;-78
2024/03/14 03:16:44;;;;;;;36.90;18.90;;;;;;;6.76;88.91;100295.70;130377;1257;107767;-78
2024/03/14 03:19:47;;;;;;;33.80;18.60;;;;;;;6.78;89.11;100291.65;130382;1270;108559;-78
2024/03/14 03:23:08;;;;;;;32.30;18.10;;;;;;;6.78;88.93;100296.44;130250;1265;99157;-78
2024/03/14 03:26:11;;;;;;;32.60;17.10;;;;;;;6.75;89.16;100297.11;130388;1261;106659;-78
2024/03/14 03:29:14;;;;;;;29.80;15.70;;;;;;;6.69;88.95;100296.29;130330;1258;97941;-78
2024/03/14 03:32:18;;;;;;;27.00;15.70;;;;;;;6.64;88.96;100297.95;130353;1257;108645;-83
2024/03/14 03:35:21;;;;;;;28.20;16.40;;;;;;;6.63;89.12;100298.75;130702;1264;107685;-78
2024/03/14 03:38:24;;;;;;;46.40;21.20;;;;;;;6.61;89.33;100291.81;130367;1264;108316;-78
2024/03/14 03:41:29;;;;;;;46.40;24.20;;;;;;;6.60;89.19;100290.46;130384;1263;98942;-78
2024/03/14 03:44:33;;;;;;;31.10;17.90;;;;;;;6.61;89.19;100292.69;130468;1260;106635;-78
2024/03/14 03:47:36;;;;;;;51.90;26.40;;;;;;;6.61;89.11;100292.19;131367;1256;106543;-83
2024/03/14 03:50:40;;;;;;;33.90;19.20;;;;;;;6.60;88.86;100288.35;131880;1260;106816;-82
2024/03/14 03:53:44;;;;;;;25.40;14.20;;;;;;;6.58;89.04;100289.59;130944;1261;108104;-83
2024/03/14 03:56:47;;;;;;;26.70;14.50;;;;;;;6.55;89.19;100296.70;130957;1264;107653;-83
2024/03/14 03:59:50;;;;;;;59.10;30.40;;;;;;;6.54;88.95;100296.27;131058;1258;97977;-83
2024/03/14 04:02:53;;;;;;;36.70;20.00;;;;;;;6.52;89.23;100297.02;131156;1261;107650;-83
2024/03/14 04:05:57;;;;;;;32.10;17.70;;;;;;;6.56;89.26;100298.83;131086;1261;106917;-83
2024/03/14 04:09:01;;;;;;;32.10;17.70;;;;;;;6.58;89.46;100303.21;131096;1263;109093;-83
2024/03/14 04:12:04;;;;;;;30.60;17.40;;;;;;;6.61;89.44;100307.00;131047;1263;108274;-83
2024/03/14 04:15:09;;;;;;;32.40;18.10;;;;;;;6.61;89.15;100305.99;131066;1264;105871;-83
2024/03/14 04:18:13;;;;;;;37.60;20.50;;;;;;;6.60;89.62;100309.61;130942;1257;106301;-83
2024/03/14 04:21:16;;;;;;;32.60;17.20;;;;;;;6.56;89.44;100309.88;131079;1264;108504;-82
2024/03/14 04:24:19;;;;;;;34.50;18.70;;;;;;;6.56;89.31;100311.00;131093;1264;108507;-83
2024/03/14 04:27:24;;;;;;;40.50;23.10;;;;;;;6.55;89.62;100307.56;130895;1260;106610;-82
2024/03/14 04:30:27;;;;;;;54.10;32.50;;;;;;;6.57;89.68;100308.22;130813;1257;106759;-82
2024/03/14 04:33:33;;;;;;;38.40;21.60;;;;;;;6.59;89.44;100307.23;130869;1264;106712;-83
2024/03/14 04:36:37;;;;;;;38.10;20.50;;;;;;;6.59;89.67;100310.75;130997;1263;108695;-83
2024/03/14 04:39:41;;;;;;;33.00;17.30;;;;;;;6.57;89.40;100312.52;131022;1257;107762;-83
2024/03/14 04:42:46;;;;;;;37.70;19.80;;;;;;;6.54;89.61;100312.92;131027;1263;108592;-83
2024/03/14 04:45:51;;;;;;;36.30;20.40;;;;;;;6.52;89.76;100311.10;131025;1256;108378;-83
2024/03/14 04:48:55;;;;;;;36.80;20.70;;;;;;;6.54;89.52;100319.96;131101;1257;107209;-83
2024/03/14 04:51:59;;;;;;;42.70;24.70;;;;;;;6.58;89.41;100316.29;131072;1258;107054;-83
2024/03/14 04:55:05;;;;;;;43.00;25.50;;;;;;;6.60;89.71;100319.86;130921;1264;106785;-83
2024/03/14 04:58:08;;;;;;;62.00;35.50;;;;;;;6.62;89.39;100314.73;130894;1264;107666;-82
2024/03/14 05:01:11;;;;;;;43.90;24.20;;;;;;;6.63;89.85;100314.25;130883;1264;106501;-83
2024/03/14 05:04:14;;;;;;;37.10;18.90;;;;;;;6.60;89.67;100314.91;130888;1256;98093;-83
2024/03/14 05:07:18;;;;;;;33.10;16.70;;;;;;;6.59;89.92;100314.23;130925;1264;98095;-83
2024/03/14 05:10:23;;;;;;;31.90;17.80;;;;;;;6.59;89.73;100314.23;130907;1257;107705;-83
2024/03/14 05:13:26;;;;;;;34.10;18.60;;;;;;;6.61;89.79;100317.98;130921;1256;107516;-82
2024/03/14 05:16:30;;;;;;;33.40;18.80;;;;;;;6.63;89.98;100319.05;130916;1261;107172;-83
2024/03/14 05:19:33;;;;;;;31.60;18.20;;;;;;;6.62;89.69;100323.92;130805;1264;107612;-82
2024/03/14 05:22:36;;;;;;;31.50;18.90;;;;;;;6.60;89.83;100320.17;130536;1260;107812;-81
2024/03/14 05:25:39;;;;;;;32.10;19.40;;;;;;;6.61;89.72;100324.21;130234;1264;107607;-79
2024/03/14 05:28:42;;;;;;;27.40;16.50;;;;;;;6.59;89.83;100327.70;130214;1263;98739;-79
2024/03/14 05:31:45;;;;;;;26.30;15.40;;;;;;;6.55;89.87;100330.49;130166;1264;98051;-79
2024/03/14 05:34:48;;;;;;;29.10;16.60;;;;;;;6.54;89.79;100333.95;130202;1257;98722;-79
2024/03/14 05:37:51;;;;;;;28.80;17.60;;;;;;;6.54;89.83;100333.05;130199;1264;108592;-79
2024/03/14 05:40:54;;;;;;;29.90;18.00;;;;;;;6.57;90.02;100331.60;130209;1260;108519;-79
2024/03/14 05:43:57;;;;;;;34.80;18.70;;;;;;;6.57;89.92;100331.23;130189;1256;97945;-79
2024/03/14 05:47:00;;;;;;;28.10;16.80;;;;;;;6.58;89.81;100328.83;130221;1273;97944;-79
2024/03/14 05:50:06;;;;;;;26.20;14.80;;;;;;;6.59;89.93;100332.27;130263;1264;98050;-79
2024/03/14 05:53:09;;;;;;;25.30;14.60;;;;;;;6.59;89.98;100334.08;130407;1264;108692;-79
2024/03/14 05:56:13;;;;;;;25.00;15.40;;;;;;;6.58;89.77;100337.52;130471;1261;98417;-79
2024/03/14 05:59:16;;;;;;;27.90;16.50;;;;;;;6.58;90.07;100339.67;130299;1261;108734;-79
2024/03/14 06:02:19;;;;;;;26.80;16.30;;;;;;;6.57;89.88;100341.98;130235;1260;107722;-79
2024/03/14 06:05:22;;;;;;;27.70;17.00;;;;;;;6.57;89.77;100344.61;130191;1256;98749;-79
2024/03/14 06:08:25;;;;;;;29.70;17.30;;;;;;;6.56;89.80;100351.45;130215;1256;97986;-80
2024/03/14 06:11:28;;;;;;;28.60;17.00;;;;;;;6.53;89.95;100349.40;130202;1264;107757;-79
2024/03/14 06:14:32;;;;;;;25.20;14.30;;;;;;;6.52;89.97;100349.81;130130;1271;108838;-79
2024/03/14 06:17:36;;;;;;;25.50;14.90;;;;;;;6.52;90.00;100347.18;130683;1261;108803;-79
2024/03/14 06:20:41;;;;;;;28.80;17.60;;;;;;;6.51;89.87;100348.88;130411;1257;108798;-79
2024/03/14 06:23:44;;;;;;;30.60;18.00;;;;;;;6.54;90.19;100347.54;130355;1260;109149;-79
2024/03/14 06:26:47;;;;;;;28.10;17.20;;;;;;;6.60;90.36;100349.50;130455;1264;107485;-79
2024/03/14 06:29:51;;;;;;;28.20;17.30;;;;;;;6.66;90.20;100349.35;130529;1260;108969;-79
2024/03/14 06:32:54;;;;;;;29.30;17.60;;;;;;;6.64;90.00;100348.12;130484;1260;106438;-78
2024/03/14 06:35:57;;;;;;;26.40;15.60;;;;;;;6.66;90.26;100352.05;130410;1258;108653;-78
2024/03/14 06:39:05;;;;;;;27.80;15.30;;;;;;;6.69;89.98;100348.40;130331;1256;97938;-77
2024/03/14 06:42:09;;;;;;;28.60;16.90;;;;;;;6.75;89.98;100352.76;130364;1264;106627;-77
2024/03/14 06:45:12;;;;;;;29.40;17.50;;;;;;;6.79;90.11;100351.89;130298;1265;106396;-77
2024/03/14 06:48:15;;;;;;;30.70;17.90;;;;;;;6.86;90.19;100351.32;130322;1264;107710;-77
2024/03/14 06:51:18;;;;;;;29.20;17.60;;;;;;;6.92;90.22;100347.42;130125;1256;97958;-77
2024/03/14 06:54:22;;;;;;;30.30;17.90;;;;;;;6.96;89.86;100349.73;130094;1260;107923;-77
2024/03/14 06:57:25;;;;;;;33.80;17.60;;;;;;;6.95;89.95;100346.17;130093;1264;106491;-77
2024/03/14 07:00:29;;;;;;;28.30;15.70;;;;;;;6.95;90.19;100352.98;130127;1273;108865;-77
2024/03/14 07:03:33;;;;;;;31.00;16.60;;;;;;;7.01;90.20;100360.69;130294;1273;107855;-77
2024/03/14 07:06:36;;;;;;;34.70;18.90;;;;;;;7.10;90.43;100361.55;130195;1257;106367;-78
2024/03/14 07:09:39;;;;;;;31.60;18.90;;;;;;;7.18;90.18;100365.59;130203;1264;107809;-77
2024/03/14 07:12:42;;;;;;;32.00;19.20;;;;;;;7.28;90.50;100361.91;130310;1264;98098;-77
2024/03/14 07:15:47;;;;;;;34.30;20.30;;;;;;;7.37;90.23;100357.13;130331;1270;107839;-77
2024/03/14 07:18:50;;;;;;;35.40;20.50;;;;;;;7.44;90.14;100359.50;130286;1264;107584;-77
2024/03/14 07:21:54;;;;;;;36.00;19.70;;;;;;;7.51;90.50;100369.21;130104;1260;107473;-78
2024/03/14 07:24:57;;;;;;;36.40;19.60;;;;;;;7.57;90.30;100370.11;130303;1257;107633;-77
2024/03/14 07:28:00;;;;;;;36.70;21.30;;;;;;;7.62;90.25;100371.64;130330;1264;108568;-77
2024/03/14 07:31:05;;;;;;;36.40;20.50;;;;;;;7.69;90.33;100371.08;130141;1256;108436;-77
2024/03/14 07:34:10;;;;;;;35.30;20.70;;;;;;;7.78;90.40;100376.98;130163;1262;107505;-78
2024/03/14 07:37:14;;;;;;;37.20;21.70;;;;;;;7.86;90.27;100379.50;130134;1256;108632;-79
2024/03/14 07:40:18;;;;;;;38.90;22.30;;;;;;;7.94;90.03;100377.43;130139;1264;107554;-78
2024/03/14 07:43:21;;;;;;;38.70;21.80;;;;;;;7.97;90.03;100383.52;130151;1264;107622;-77
2024/03/14 07:46:24;;;;;;;39.50;21.00;;;;;;;8.01;89.86;100384.08;130127;1265;106325;-77
2024/03/14 07:49:27;;;;;;;40.90;21.60;;;;;;;8.06;89.93;100379.73;130311;1264;98041;-78
2024/03/14 07:52:32;;;;;;;41.10;23.60;;;;;;;8.12;90.02;100380.27;130255;1264;98163;-77
2024/03/14 07:55:37;;;;;;;42.50;23.70;;;;;;;8.19;90.07;100382.96;130321;1265;107496;-80
2024/03/14 07:58:42;;;;;;;39.40;23.40;;;;;;;8.28;89.88;100387.95;130269;1264;107732;-80
2024/03/14 08:01:45;;;;;;;42.70;24.20;;;;;;;8.30;89.71;100392.02;130372;1263;106451;-80
2024/03/14 08:04:48;;;;;;;43.20;22.80;;;;;;;8.31;89.68;100393.53;130203;1260;107647;-80
2024/03/14 08:07:51;;;;;;;38.50;21.30;;;;;;;8.34;89.61;100391.89;130232;1264;99209;-80
2024/03/14 08:10:54;;;;;;;40.50;23.90;;;;;;;8.38;89.69;100392.67;130406;1264;98030;-80
2024/03/14 08:14:00;;;;;;;46.20;24.90;;;;;;;8.41;89.73;100396.87;130332;1260;98021;-80
2024/03/14 08:17:07;;;;;;;42.80;24.50;;;;;;;8.47;89.56;100396.23;130194;1273;109112;-80
2024/03/14 08:20:15;;;;;;;239.00;141.00;;;;;;;8.54;89.60;100399.84;130238;1261;106961;-80
2024/03/14 08:23:20;;;;;;;260.20;133.10;;;;;;;8.55;89.46;100400.95;130392;1260;107258;-80
2024/03/14 08:26:23;;;;;;;154.80;85.10;;;;;;;8.50;89.09;100400.33;130414;1262;107662;-80
2024/03/14 08:29:26;;;;;;;127.40;78.90;;;;;;;8.46;89.22;100403.21;130469;1265;108580;-80
2024/03/14 08:32:29;;;;;;;49.90;27.30;;;;;;;8.47;89.39;100404.18;130289;1261;107106;-80
2024/03/14 08:35:40;;;;;;;38.80;21.90;;;;;;;8.47;89.00;100407.36;130315;1263;107626;-80
2024/03/14 08:38:43;;;;;;;42.00;26.30;;;;;;;8.52;89.11;100408.73;130410;1257;107960;-79
2024/03/14 08:41:46;;;;;;;36.80;22.70;;;;;;;8.56;89.01;100405.33;130402;1260;108684;-80
2024/03/14 08:44:50;;;;;;;38.70;23.70;;;;;;;8.64;88.78;100410.29;130328;1256;98018;-79
2024/03/14 08:47:53;;;;;;;39.60;23.70;;;;;;;8.75;89.01;100407.94;130502;1256;107579;-78
2024/03/14 08:50:56;;;;;;;37.80;23.30;;;;;;;8.79;88.57;100409.42;130328;1256;99126;-78
2024/03/14 08:54:28;;;;;;;41.10;24.40;;;;;;;8.80;88.63;100407.58;130370;1257;108625;-79
2024/03/14 08:57:33;;;;;;;40.60;22.90;;;;;;;8.84;88.84;100406.70;130346;1258;107154;-78
2024/03/14 09:00:37;;;;;;;43.90;25.80;;;;;;;8.89;88.58;100406.08;130317;1264;109375;-78
2024/03/14 09:03:40;;;;;;;39.00;23.30;;;;;;;8.99;88.47;100408.02;130313;1256;108602;-79
2024/03/14 09:06:43;;;;;;;46.70;28.30;;;;;;;9.09;88.60;100410.19;130259;1256;107745;-79
2024/03/14 09:09:46;;;;;;;45.50;29.70;;;;;;;9.18;88.27;100404.73;130274;1262;108777;-78
2024/03/14 09:12:49;;;;;;;44.10;28.90;;;;;;;9.28;88.54;100403.42;130329;1256;107649;-78
2024/03/14 09:15:52;;;;;;;45.00;27.50;;;;;;;9.39;88.37;100401.16;130344;1265;106388;-78
2024/03/14 09:18:57;;;;;;;43.60;26.10;;;;;;;9.50;88.04;100401.85;130295;1263;97969;-79
2024/03/14 09:22:01;;;;;;;44.40;26.00;;;;;;;9.58;87.92;100395.19;130361;1264;106614;-79
2024/03/14 09:25:07;;;;;;;44.80;25.30;;;;;;;9.70;87.61;100392.64;130306;1260;108729;-78
2024/03/14 09:28:11;;;;;;;45.80;26.00;;;;;;;9.83;87.85;100395.18;130407;1256;108839;-79
2024/03/14 09:31:14;;;;;;;44.30;27.20;;;;;;;9.96;87.63;100394.67;130197;1264;188702;-79
2024/03/14 09:34:18;;;;;;;45.90;28.50;;;;;;;10.12;87.35;100394.21;130304;1262;97988;-78
2024/03/14 09:37:25;;;;;;;46.70;28.20;;;;;;;10.28;87.57;100393.25;130369;1264;107689;-79
2024/03/14 09:40:28;;;;;;;46.40;27.90;;;;;;;10.41;87.11;100390.54;130339;1256;107074;-79
2024/03/14 09:43:32;;;;;;;55.20;32.10;;;;;;;10.55;87.22;100393.33;130376;1264;106864;-79
2024/03/14 09:46:35;;;;;;;44.90;27.40;;;;;;;10.65;86.48;100392.70;130337;1257;106745;-79
2024/03/14 09:49:39;;;;;;;42.30;27.60;;;;;;;10.70;85.78;100390.17;130314;1264;106539;-79
2024/03/14 09:52:43;;;;;;;46.20;28.90;;;;;;;10.72;85.89;100388.27;130328;1269;107460;-79
2024/03/14 09:55:46;;;;;;;47.30;27.40;;;;;;;10.80;86.17;100381.79;130424;1258;106693;-79
2024/03/14 09:58:49;;;;;;;46.90;26.60;;;;;;;10.85;85.64;100375.59;130327;1257;106927;-78
2024/03/14 10:01:53;;;;;;;42.80;26.30;;;;;;;10.85;85.90;100375.36;130340;1256;106965;-78
2024/03/14 10:04:56;;;;;;;43.90;26.50;;;;;;;10.85;85.41;100374.56;130406;1256;107386;-79
2024/03/14 10:08:00;;;;;;;41.00;23.80;;;;;;;10.79;85.48;100376.00;130219;1264;99067;-79
2024/03/14 10:11:05;;;;;;;44.50;25.30;;;;;;;10.72;85.31;100379.02;130330;1260;106838;-79
2024/03/14 10:14:16;;;;;;;41.10;26.20;;;;;;;10.66;85.22;100377.67;130277;1262;106692;-79
2024/03/14 10:17:20;;;;;;;50.30;29.60;;;;;;;10.70;85.99;100375.25;130338;1264;105560;-79
2024/03/14 10:20:23;;;;;;;43.50;26.90;;;;;;;10.80;85.25;100366.44;130370;1260;106792;-79
2024/03/14 10:23:26;;;;;;;43.60;25.90;;;;;;;10.80;84.88;100366.61;130374;1257;106206;-79
2024/03/14 10:26:29;;;;;;;44.80;26.70;;;;;;;10.89;85.09;100365.76;130329;1261;108651;-79
2024/03/14 10:29:33;;;;;;;40.70;25.30;;;;;;;10.91;84.82;100366.75;130346;1256;106514;-79
2024/03/14 10:32:38;;;;;;;44.00;26.60;;;;;;;10.89;84.67;100370.09;130288;1263;107018;-79
2024/03/14 10:35:41;;;;;;;39.00;26.40;;;;;;;10.77;84.37;100368.34;130317;1263;106711;-79
2024/03/14 10:38:44;;;;;;;39.40;24.50;;;;;;;10.70;84.65;100367.14;130349;1264;107170;-79
2024/03/14 10:41:48;;;;;;;38.90;24.50;;;;;;;10.63;85.06;100365.83;130326;1263;108499;-79
2024/03/14 10:44:52;;;;;;;36.20;23.60;;;;;;;10.62;84.76;100360.42;130301;1256;107695;-79
2024/03/14 10:47:55;;;;;;;36.80;24.10;;;;;;;10.63;84.75;100354.26;130339;1256;108626;-79
2024/03/14 10:50:58;;;;;;;35.70;23.30;;;;;;;10.65;84.91;100347.64;130340;1256;108645;-78
2024/03/14 10:54:01;;;;;;;35.00;23.30;;;;;;;10.71;84.76;100343.23;130332;1256;99029;-79
2024/03/14 10:57:05;;;;;;;36.20;24.00;;;;;;;10.75;84.40;100343.00;130319;1264;106727;-79
2024/03/14 11:00:13;;;;;;;35.50;24.10;;;;;;;10.77;84.96;100342.16;130222;1263;106491;-79
2024/03/14 11:03:18;;;;;;;42.40;26.30;;;;;;;10.81;84.49;100341.07;130288;1263;106713;-78
2024/03/14 11:06:23;;;;;;;36.90;23.60;;;;;;;10.82;84.24;100339.79;130348;1261;108764;-79
2024/03/14 11:09:26;;;;;;;34.30;23.80;;;;;;;10.81;84.51;100336.45;130360;1260;106262;-83
2024/03/14 11:12:29;;;;;;;34.80;23.50;;;;;;;10.82;84.48;100334.59;130459;1257;109001;-79
2024/03/14 11:15:36;;;;;;;32.70;21.10;;;;;;;10.82;84.55;100327.65;130329;1263;107655;-79
2024/03/14 11:18:39;;;;;;;32.30;20.80;;;;;;;10.82;84.01;100326.72;130294;1260;106746;-80
2024/03/14 11:21:44;;;;;;;35.30;25.50;;;;;;;10.87;83.89;100325.86;130359;1264;106489;-79
2024/03/14 11:24:47;;;;;;;68.30;34.90;;;;;;;10.94;83.58;100322.21;130264;1260;106988;-79
2024/03/14 11:27:50;;;;;;;38.90;24.30;;;;;;;11.01;83.55;100322.19;130307;1256;106613;-79
2024/03/14 11:30:55;;;;;;;33.90;22.80;;;;;;;11.10;83.96;100323.08;129954;1264;98799;-79
2024/03/14 11:33:58;;;;;;;31.30;21.60;;;;;;;11.21;83.91;100321.60;130223;1260;107771;-80
2024/03/14 11:37:03;;;;;;;33.40;23.70;;;;;;;11.27;83.22;100318.33;130115;1257;107486;-80
2024/03/14 11:40:15;;;;;;;32.60;21.50;;;;;;;11.30;83.54;100313.79;130259;1264;108625;-80
2024/03/14 11:43:18;;;;;;;33.30;23.30;;;;;;;11.35;83.40;100307.73;130272;1260;108749;-80
2024/03/14 11:46:21;;;;;;;42.90;27.00;;;;;;;11.36;83.45;100309.15;130252;1257;107423;-80
2024/03/14 11:49:27;;;;;;;34.80;22.30;;;;;;;11.39;83.02;100313.85;130235;1263;107160;-80
2024/03/14 11:52:31;;;;;;;37.70;25.50;;;;;;;11.41;82.82;100308.17;130227;1265;107892;-80
2024/03/14 11:55:34;;;;;;;31.00;20.90;;;;;;;11.46;82.95;100307.50;130128;1257;107545;-80
2024/03/14 11:58:40;;;;;;;28.00;20.10;;;;;;;11.50;82.51;100304.05;130278;1257;107281;-80
2024/03/14 12:01:43;;;;;;;27.60;18.80;;;;;;;11.53;82.46;100301.61;130136;1264;106585;-80
2024/03/14 12:04:47;;;;;;;24.10;17.10;;;;;;;11.57;82.09;100303.04;130248;1264;98090;-80
2024/03/14 12:07:54;;;;;;;24.70;16.10;;;;;;;11.62;81.69;100302.26;130138;1264;108167;-80
2024/03/14 12:10:57;;;;;;;24.90;17.90;;;;;;;11.69;81.73;100294.24;130447;1265;107633;-80
2024/03/14 12:14:00;;;;;;;23.00;16.20;;;;;;;11.80;81.30;100294.52;130482;1265;108677;-80
2024/03/14 12:17:04;;;;;;;27.70;16.90;;;;;;;11.90;81.23;100295.69;130342;1263;99154;-80
2024/03/14 12:20:11;;;;;;;33.00;20.50;;;;;;;11.94;80.68;100289.02;130168;1260;107051;-80
2024/03/14 12:23:14;;;;;;;62.60;38.80;;;;;;;11.95;80.33;100288.88;130161;1263;107579;-80
2024/03/14 12:26:17;;;;;;;29.60;20.50;;;;;;;11.95;80.36;100284.63;130310;1264;109592;-80
2024/03/14 12:29:21;;;;;;;25.40;18.00;;;;;;;11.98;80.15;100278.39;130258;1265;106783;-80
2024/03/14 12:32:24;;;;;;;24.50;16.90;;;;;;;11.98;79.46;100279.13;130376;1257;106996;-80
2024/03/14 12:35:27;;;;;;;23.50;16.90;;;;;;;11.98;79.45;100272.01;130411;1257;106781;-81
2024/03/14 12:38:30;;;;;;;27.10;18.10;;;;;;;12.03;79.89;100267.61;130218;1265;106918;-80
2024/03/14 12:41:36;;;;;;;25.10;17.50;;;;;;;12.09;80.04;100270.74;130296;1270;97986;-80
2024/03/14 12:44:39;;;;;;;139.20;94.10;;;;;;;12.08;79.38;100266.26;130329;1264;108721;-80
2024/03/14 12:47:43;;;;;;;40.70;27.30;;;;;;;12.06;79.19;100265.61;130324;1264;99117;-80
2024/03/14 12:50:46;;;;;;;41.20;28.00;;;;;;;12.04;77.46;100264.81;130273;1260;107678;-79
2024/03/14 12:53:56;;;;;;;97.20;62.90;;;;;;;12.01;77.77;100265.16;130281;1265;108595;-79
2024/03/14 12:56:59;;;;;;;33.90;21.90;;;;;;;11.98;77.14;100264.66;130185;1264;108610;-79
2024/03/14 13:00:03;;;;;;;57.30;36.30;;;;;;;11.97;77.57;100260.51;130218;1265;99114;-79
2024/03/14 13:03:08;;;;;;;25.70;18.00;;;;;;;11.96;77.40;100256.86;130211;1256;107725;-79
2024/03/14 13:06:20;;;;;;;24.80;16.20;;;;;;;11.90;77.65;100246.66;130169;1265;109050;-79
2024/03/14 13:09:24;;;;;;;22.40;15.20;;;;;;;11.94;77.20;100254.02;130387;1257;107725;-80
2024/03/14 13:12:28;;;;;;;18.70;14.20;;;;;;;11.94;77.07;100246.98;130283;1265;107595;-79
2024/03/14 13:15:33;;;;;;;20.80;13.80;;;;;;;11.95;76.19;100248.46;130134;1259;107581;-79
2024/03/14 13:18:39;;;;;;;20.40;13.70;;;;;;;11.93;76.16;100243.45;130107;1264;106277;-78
2024/03/14 13:21:45;;;;;;;20.50;14.90;;;;;;;11.92;76.37;100238.48;130163;1259;107910;-79
2024/03/14 13:24:49;;;;;;;25.10;17.10;;;;;;;11.93;76.16;100239.17;130205;1265;108754;-81
2024/03/14 13:27:52;;;;;;;19.20;13.80;;;;;;;11.95;75.78;100236.00;130441;1264;107704;-79
2024/03/14 13:30:55;;;;;;;19.70;13.20;;;;;;;11.94;75.49;100234.79;130568;1262;99156;-80
2024/03/14 13:33:59;;;;;;;20.20;13.60;;;;;;;11.94;75.21;100235.55;130361;1258;108734;-80
2024/03/14 13:37:02;;;;;;;17.80;12.40;;;;;;;11.94;74.96;100233.23;130277;1265;107658;-79
2024/03/14 13:40:11;;;;;;;17.80;12.90;;;;;;;11.95;74.82;100230.39;130226;1263;106658;-80
2024/03/14 13:43:14;;;;;;;18.90;13.20;;;;;;;11.94;74.38;100229.84;130266;1264;106861;-79
2024/03/14 13:46:17;;;;;;;18.00;12.40;;;;;;;11.92;75.00;100229.11;130365;1264;98034;-79